createdAt,value
2022-11-21T04:51:06.025Z,94620.91
2022-11-21T04:53:41.430Z,94618.91
2022-11-21T04:56:16.334Z,94613.59
2022-11-21T04:58:46.359Z,94621.16
2022-11-21T05:01:15.860Z,94624.63
2022-11-21T05:03:45.528Z,94626.72
2022-11-21T05:06:16.464Z,94623.81
2022-11-21T05:08:51.640Z,94617.69
2022-11-21T05:11:40.368Z,94624.00
2022-11-21T05:14:09.774Z,94616.69
2022-11-21T05:16:39.220Z,94619.66
2022-11-21T05:19:10.094Z,94618.03
2022-11-21T05:21:40.995Z,94619.06
2022-11-21T05:24:10.550Z,94623.56
2022-11-21T05:26:40.045Z,94627.22
2022-11-21T05:29:09.496Z,94622.44
2022-11-21T05:31:39.187Z,94618.59
2022-11-21T05:34:08.669Z,94639.63
2022-11-21T05:36:38.133Z,94626.91
2022-11-21T05:39:09.032Z,94629.56
2022-11-21T05:41:38.746Z,94620.03
2022-11-21T05:44:07.475Z,94621.75
2022-11-21T05:46:37.084Z,94628.84
2022-11-21T05:49:06.857Z,94622.88
2022-11-21T05:51:36.443Z,94627.88
2022-11-21T05:54:07.847Z,94622.16
2022-11-21T05:56:37.316Z,94631.59
2022-11-21T05:59:06.781Z,94632.06
2022-11-21T06:01:53.547Z,94631.25
2022-11-21T06:04:23.511Z,94632.63
2022-11-21T06:06:52.932Z,94631.81
2022-11-21T06:09:23.733Z,94632.81
2022-11-21T06:11:53.096Z,94637.88
2022-11-21T06:14:22.527Z,94636.41
2022-11-21T06:16:52.335Z,94633.75
2022-11-21T06:19:21.744Z,94633.34
2022-11-21T06:21:51.173Z,94640.38
2022-11-21T06:24:22.280Z,94645.19
2022-11-21T06:26:53.345Z,94646.81
2022-11-21T06:29:22.907Z,94655.34
2022-11-21T06:31:52.267Z,94637.84
2022-11-21T06:34:21.676Z,94638.75
2022-11-21T06:36:51.321Z,94646.25
2022-11-21T06:39:20.889Z,94644.88
2022-11-21T06:41:51.295Z,94648.66
2022-11-21T06:44:22.255Z,94649.13
2022-11-21T06:46:51.945Z,94654.44
2022-11-21T06:49:22.088Z,94655.47
2022-11-21T06:51:52.573Z,94657.34
2022-11-21T06:54:22.045Z,94656.47
2022-11-21T06:56:55.492Z,94654.94
2022-11-21T06:59:26.272Z,94664.19
2022-11-21T07:01:55.760Z,94662.59
2022-11-21T07:04:25.360Z,94667.91
2022-11-21T07:06:54.943Z,94667.59
2022-11-21T07:09:33.633Z,94678.13
2022-11-21T07:12:17.812Z,94670.16
2022-11-21T07:14:48.525Z,94672.81
2022-11-21T07:17:17.904Z,94677.09
2022-11-21T07:19:47.480Z,94678.78
2022-11-21T07:22:17.081Z,94673.47
2022-11-21T07:24:46.530Z,94686.19
2022-11-21T07:27:15.916Z,94686.16
2022-11-21T07:29:45.424Z,94691.63
2022-11-21T07:32:16.417Z,94694.84
2022-11-21T07:34:45.902Z,94690.34
2022-11-21T07:37:15.361Z,94687.69
2022-11-21T07:39:44.786Z,94693.25
2022-11-21T07:42:14.194Z,94697.25
2022-11-21T07:44:44.341Z,94702.00
2022-11-21T07:47:15.255Z,94704.28
2022-11-21T07:49:44.771Z,94710.06
2022-11-21T07:52:14.275Z,94713.44
2022-11-21T07:54:43.753Z,94715.28
2022-11-21T07:57:13.134Z,94712.13
2022-11-21T07:59:42.689Z,94712.78
2022-11-21T08:02:20.764Z,94706.16
2022-11-21T08:04:50.504Z,94705.38
2022-11-21T08:07:22.904Z,94707.88
2022-11-21T08:09:52.513Z,94710.06
2022-11-21T08:12:22.820Z,94707.56
2022-11-21T08:14:52.235Z,94708.88
2022-11-21T08:17:23.129Z,94703.63
2022-11-21T08:19:52.536Z,94710.88
2022-11-21T08:22:22.042Z,94710.97
2022-11-21T08:24:51.404Z,94708.53
2022-11-21T08:27:21.499Z,94705.09
2022-11-21T08:29:51.361Z,94708.38
2022-11-21T08:32:22.257Z,94716.59
2022-11-21T08:34:51.643Z,94709.25
2022-11-21T08:37:21.048Z,94710.38
2022-11-21T08:39:50.441Z,94710.41
2022-11-21T08:42:19.927Z,94712.59
2022-11-21T08:44:49.325Z,94710.56
2022-11-21T08:47:19.126Z,94712.22
2022-11-21T08:49:50.298Z,94710.31
2022-11-21T08:52:19.704Z,94708.75
2022-11-21T08:54:49.292Z,94714.66
2022-11-21T08:57:18.749Z,94722.19
2022-11-21T08:59:48.237Z,94721.13
2022-11-21T09:02:17.724Z,94716.84
2022-11-21T09:04:47.176Z,94722.91
2022-11-21T09:07:18.005Z,94714.41
2022-11-21T09:09:47.447Z,94705.66
2022-11-21T09:12:16.895Z,94712.09
2022-11-21T09:15:03.848Z,94706.81
2022-11-21T09:17:50.823Z,94708.88
2022-11-21T09:20:20.537Z,94702.59
2022-11-21T09:22:52.162Z,94704.31
2022-11-21T09:25:21.644Z,94704.44
2022-11-21T09:27:51.192Z,94704.78
2022-11-21T09:30:20.684Z,94694.50
2022-11-21T09:32:50.109Z,94688.06
2022-11-21T09:35:20.408Z,94691.28
2022-11-21T09:37:52.022Z,94685.13
2022-11-21T09:40:21.759Z,94688.84
2022-11-21T09:43:15.858Z,94689.38
2022-11-21T09:45:50.859Z,94678.69
2022-11-21T09:48:27.672Z,94684.56
2022-11-21T09:51:03.919Z,94682.69
2022-11-21T09:53:38.628Z,94680.06
2022-11-21T09:56:12.989Z,94683.31
2022-11-21T09:58:48.796Z,94683.88
2022-11-21T10:01:19.155Z,94678.91
2022-11-21T10:03:53.175Z,94684.28
2022-11-21T10:06:27.768Z,94679.34
2022-11-21T10:09:13.106Z,94675.59
2022-11-21T10:12:10.476Z,94672.69
2022-11-21T10:14:59.947Z,94672.97
2022-11-21T10:17:45.925Z,94675.38
2022-11-21T10:20:51.566Z,94663.31
2022-11-21T10:23:57.658Z,94654.00
2022-11-21T10:26:43.105Z,94651.28
2022-11-21T10:29:23.830Z,94640.88
2022-11-21T10:31:59.122Z,94639.84
2022-11-21T10:34:36.535Z,94633.44
2022-11-21T10:37:17.033Z,94639.59
2022-11-21T10:39:51.135Z,94639.09
2022-11-21T10:42:34.451Z,94623.56
2022-11-21T10:45:17.375Z,94614.72
2022-11-21T10:47:49.796Z,94619.53
2022-11-21T10:50:41.555Z,94619.81
2022-11-21T10:53:37.235Z,94623.31
2022-11-21T10:56:12.135Z,94615.56
2022-11-21T10:58:48.163Z,94614.22
2022-11-21T11:01:28.536Z,94604.31
2022-11-21T11:04:28.187Z,94597.91
2022-11-21T11:06:59.851Z,94589.09
2022-11-21T11:09:34.076Z,94586.69
2022-11-21T11:12:50.869Z,94588.28
2022-11-21T11:15:26.130Z,94570.41
2022-11-21T11:18:05.818Z,94567.97
2022-11-21T11:20:41.777Z,94566.88
2022-11-21T11:23:27.149Z,94574.38
2022-11-21T11:25:59.606Z,94568.69
2022-11-21T11:28:37.873Z,94564.13
2022-11-21T11:31:09.938Z,94567.13
2022-11-21T11:33:42.198Z,94560.94
2022-11-21T11:36:24.674Z,94556.13
2022-11-21T11:38:59.056Z,94546.56
2022-11-21T11:42:35.015Z,94540.19
2022-11-21T11:45:42.044Z,94539.63
2022-11-21T11:48:12.883Z,94536.72
2022-11-21T11:50:48.638Z,94533.22
2022-11-21T11:53:22.699Z,94531.91
2022-11-21T11:55:58.668Z,94531.31
2022-11-21T11:58:38.426Z,94525.66
2022-11-21T12:01:13.960Z,94529.66
2022-11-21T12:03:58.118Z,94522.69
2022-11-21T12:08:38.822Z,94513.00
2022-11-21T12:11:00.779Z,94502.19
2022-11-21T12:13:32.569Z,94502.94
2022-11-21T12:16:13.085Z,94504.00
2022-11-21T12:18:56.871Z,94484.16
2022-11-21T12:21:26.665Z,94474.25
2022-11-21T12:23:58.658Z,94463.88
2022-11-21T12:26:55.325Z,94460.81
2022-11-21T12:29:50.875Z,94460.84
2022-11-21T12:32:47.053Z,94448.88
2022-11-21T12:35:54.312Z,94447.03
2022-11-21T12:39:16.418Z,94441.94
2022-11-21T12:42:15.805Z,94445.50
2022-11-21T12:45:06.371Z,94436.97
2022-11-21T12:48:44.688Z,94443.44
2022-11-21T12:51:59.662Z,94434.09
2022-11-21T12:54:58.762Z,94435.41
2022-11-21T12:57:55.670Z,94435.94
2022-11-21T13:00:35.283Z,94423.97
2022-11-21T13:03:45.994Z,94425.56
2022-11-21T13:06:20.755Z,94412.75
2022-11-21T13:08:54.091Z,94411.41
2022-11-21T13:11:49.697Z,94403.94
2022-11-21T13:14:29.395Z,94406.81
2022-11-21T13:17:22.257Z,94403.56
2022-11-21T13:19:59.003Z,94398.69
2022-11-21T13:23:01.224Z,94393.53
2022-11-21T13:25:49.583Z,94388.97
2022-11-21T13:28:38.246Z,94382.78
2022-11-21T13:31:35.398Z,94381.16
2022-11-21T13:34:06.993Z,94376.25
2022-11-21T13:36:43.064Z,94368.06
2022-11-21T13:39:39.255Z,94361.69
2022-11-21T13:42:35.052Z,94357.41
2022-11-21T13:45:43.551Z,94353.84
2022-11-21T13:48:37.108Z,94350.59
2022-11-21T13:51:52.297Z,94340.09
2022-11-21T13:55:18.106Z,94336.97
2022-11-21T13:58:09.541Z,94335.50
2022-11-21T14:01:33.470Z,94330.22
2022-11-21T14:04:35.716Z,94326.81
2022-11-21T14:07:29.498Z,94330.69
2022-11-21T14:10:01.727Z,94334.66
2022-11-21T14:12:39.751Z,94327.75
2022-11-21T14:15:31.685Z,94320.88
2022-11-21T14:18:02.297Z,94321.41
2022-11-21T14:20:50.309Z,94314.50
2022-11-21T14:23:22.480Z,94314.97
2022-11-21T14:25:55.866Z,94311.44
2022-11-21T14:28:31.131Z,94312.41
2022-11-21T14:31:04.561Z,94308.56
2022-11-21T14:33:36.485Z,94302.75
2022-11-21T14:36:12.366Z,94296.47
2022-11-21T14:38:45.529Z,94292.78
2022-11-21T14:41:32.226Z,94294.75
2022-11-21T14:44:18.613Z,94285.41
2022-11-21T14:46:51.278Z,94284.56
2022-11-21T14:49:30.282Z,94279.16
2022-11-21T14:52:16.548Z,94274.88
2022-11-21T14:55:22.845Z,94274.13
2022-11-21T14:57:44.457Z,94267.00
2022-11-21T15:00:58.635Z,94263.91
2022-11-21T15:03:23.215Z,94257.84
2022-11-21T15:06:05.728Z,94250.47
2022-11-21T15:09:18.329Z,94245.22
2022-11-21T15:11:41.715Z,94243.41
2022-11-21T15:14:25.569Z,94249.63
2022-11-21T15:16:56.928Z,94244.53
2022-11-21T15:19:30.092Z,94233.38
2022-11-21T15:22:04.233Z,94226.72
2022-11-21T15:24:41.772Z,94221.94
2022-11-21T15:27:33.386Z,94214.50
2022-11-21T15:30:29.364Z,94211.84
2022-11-21T15:33:11.351Z,94200.69
2022-11-21T15:35:50.747Z,94200.16
2022-11-21T15:38:33.321Z,94198.31
2022-11-21T15:41:25.606Z,94194.56
2022-11-21T15:43:57.786Z,94188.97
2022-11-21T15:46:30.165Z,94179.13
2022-11-21T15:49:25.097Z,94183.63
2022-11-21T15:52:06.947Z,94187.06
2022-11-21T15:54:37.210Z,94180.41
2022-11-21T15:57:06.793Z,94171.84
2022-11-21T15:59:36.286Z,94166.00
2022-11-21T16:02:05.740Z,94165.97
2022-11-21T16:04:35.202Z,94172.09
2022-11-21T16:07:06.045Z,94157.16
2022-11-21T16:09:36.058Z,94151.84
2022-11-21T16:12:06.244Z,94143.59
2022-11-21T16:14:35.752Z,94146.78
2022-11-21T16:17:05.134Z,94149.94
2022-11-21T16:19:34.593Z,94159.81
2022-11-21T16:22:05.383Z,94147.28
2022-11-21T16:24:34.781Z,94133.69
2022-11-21T16:27:04.351Z,94133.41
2022-11-21T16:29:33.861Z,94126.75
2022-11-21T16:32:04.040Z,94124.34
2022-11-21T16:34:34.021Z,94121.16
2022-11-21T16:37:07.483Z,94116.59
2022-11-21T16:39:37.313Z,94111.28
2022-11-21T16:42:11.285Z,94108.09
2022-11-21T16:44:40.794Z,94107.81
2022-11-21T16:47:10.232Z,94108.34
2022-11-21T16:49:42.999Z,94100.31
2022-11-21T16:52:14.364Z,94087.00
2022-11-21T16:54:43.874Z,94085.91
2022-11-21T16:57:13.487Z,94082.47
2022-11-21T16:59:42.966Z,94088.31
2022-11-21T17:02:12.572Z,94073.13
2022-11-21T17:04:42.014Z,94071.78
2022-11-21T17:07:12.884Z,94061.94
2022-11-21T17:09:42.406Z,94053.13
2022-11-21T17:12:11.860Z,94056.59
2022-11-21T17:14:41.378Z,94051.53
2022-11-21T17:17:10.854Z,94045.97
2022-11-21T17:19:40.261Z,94051.28
2022-11-21T17:22:09.830Z,94040.09
2022-11-21T17:24:40.618Z,94039.28
2022-11-21T17:27:10.459Z,94029.72
2022-11-21T17:29:39.887Z,94024.66
2022-11-21T17:32:09.244Z,94023.59
2022-11-21T17:34:39.281Z,94022.50
2022-11-21T17:37:09.064Z,94013.97
2022-11-21T17:39:39.928Z,94017.66
2022-11-21T17:42:09.363Z,94011.56
2022-11-21T17:44:38.814Z,94008.34
2022-11-21T17:47:08.257Z,94009.16
2022-11-21T17:49:37.937Z,94004.91
2022-11-21T17:52:08.303Z,94002.00
2022-11-21T17:54:37.830Z,93998.28
2022-11-21T17:57:09.389Z,93991.09
2022-11-21T17:59:39.219Z,93998.75
2022-11-21T18:02:09.584Z,93995.28
2022-11-21T18:04:39.447Z,94000.31
2022-11-21T18:07:08.915Z,93991.00
2022-11-21T18:09:38.387Z,93987.25
2022-11-21T18:12:09.444Z,93980.06
2022-11-21T18:14:38.834Z,93984.84
2022-11-21T18:17:08.272Z,93972.63
2022-11-21T18:19:37.716Z,93974.47
2022-11-21T18:22:07.125Z,93963.06
2022-11-21T18:24:36.594Z,93956.16
2022-11-21T18:27:06.056Z,93953.75
2022-11-21T18:29:37.379Z,93952.41
2022-11-21T18:32:07.564Z,93945.25
2022-11-21T18:34:37.062Z,93943.13
2022-11-21T18:37:06.668Z,93931.72
2022-11-21T18:39:39.959Z,93922.69
2022-11-21T18:42:09.200Z,93911.78
2022-11-21T18:44:39.904Z,93903.28
2022-11-21T18:47:20.135Z,93893.19
2022-11-21T18:49:50.397Z,93887.34
2022-11-21T18:52:19.835Z,93894.81
2022-11-21T18:54:49.376Z,93895.06
2022-11-21T18:57:18.923Z,93883.91
2022-11-21T18:59:49.711Z,93884.97
2022-11-21T19:02:19.232Z,93886.53
2022-11-21T19:04:48.703Z,93882.81
2022-11-21T19:07:18.172Z,93879.63
2022-11-21T19:09:47.784Z,93863.97
2022-11-21T19:12:17.641Z,93866.06
2022-11-21T19:14:47.108Z,93853.06
2022-11-21T19:17:18.024Z,93845.34
2022-11-21T19:19:48.435Z,93848.56
2022-11-21T19:22:18.175Z,93841.38
2022-11-21T19:24:48.124Z,93834.72
2022-11-21T19:27:17.662Z,93835.28
2022-11-21T19:29:51.399Z,93822.53
2022-11-21T19:32:22.403Z,93811.94
2022-11-21T19:34:51.809Z,93806.38
2022-11-21T19:37:21.279Z,93794.94
2022-11-21T19:39:51.116Z,93783.53
2022-11-21T19:42:20.615Z,93789.91
2022-11-21T19:44:50.089Z,93794.41
2022-11-21T19:47:20.933Z,93803.16
2022-11-21T19:49:50.706Z,93832.88
2022-11-21T19:52:24.916Z,93835.78
2022-11-21T19:54:57.344Z,93816.13
2022-11-21T19:57:26.820Z,93807.38
2022-11-21T19:59:56.415Z,93797.03
2022-11-21T20:02:27.244Z,93795.97
2022-11-21T20:04:56.837Z,93782.69
2022-11-21T20:07:26.463Z,93788.53
2022-11-21T20:09:56.133Z,93782.19
2022-11-21T20:12:25.600Z,93776.88
2022-11-21T20:14:55.302Z,93771.56
2022-11-21T20:17:26.285Z,93769.19
2022-11-21T20:19:57.855Z,93762.03
2022-11-21T20:22:27.309Z,93760.44
2022-11-21T20:24:56.740Z,93758.31
2022-11-21T20:27:26.376Z,93762.53
2022-11-21T20:29:56.092Z,93768.88
2022-11-21T20:32:28.406Z,93758.78
2022-11-21T20:34:58.207Z,93755.59
2022-11-21T20:37:27.912Z,93763.81
2022-11-21T20:39:57.855Z,93760.63
2022-11-21T20:42:27.438Z,93755.31
2022-11-21T20:45:48.493Z,93752.66
2022-11-21T20:47:47.686Z,93738.06
2022-11-21T20:50:48.724Z,93744.19
2022-11-21T20:56:02.298Z,93740.47
2022-11-21T20:58:35.012Z,93733.56
2022-11-21T21:01:05.755Z,93737.28
2022-11-21T21:03:37.612Z,93734.63
2022-11-21T21:06:10.588Z,93731.97
2022-11-21T21:08:41.197Z,93726.66
2022-11-21T21:11:30.914Z,93726.94
2022-11-21T21:14:04.649Z,93724.00
2022-11-21T21:16:34.345Z,93725.59
2022-11-21T21:19:05.187Z,93726.41
2022-11-21T21:21:34.717Z,93727.47
2022-11-21T21:24:07.982Z,93726.91
2022-11-21T21:26:42.937Z,93731.97
2022-11-21T21:29:15.529Z,93730.91
2022-11-21T21:31:51.009Z,93718.16
2022-11-21T21:34:24.278Z,93716.59
2022-11-21T21:36:53.724Z,93725.31
2022-11-21T21:39:23.248Z,93727.22
2022-11-21T21:41:52.766Z,93721.34
2022-11-21T21:44:27.076Z,93722.69
2022-11-21T21:46:59.440Z,93728.78
2022-11-21T21:49:30.621Z,93730.88
2022-11-21T21:52:00.488Z,93724.78
2022-11-21T21:54:30.956Z,93727.44
2022-11-21T21:57:01.448Z,93718.16
2022-11-21T21:59:32.948Z,93720.81
2022-11-21T22:02:02.989Z,93709.41
2022-11-21T22:04:34.006Z,93705.97
2022-11-21T22:07:05.450Z,93701.19
2022-11-21T22:09:35.703Z,93705.44
2022-11-21T22:12:06.158Z,93707.84
2022-11-21T22:14:35.883Z,93694.84
2022-11-21T22:17:05.413Z,93694.28
2022-11-21T22:19:36.380Z,93700.38
2022-11-21T22:22:05.840Z,93695.38
2022-11-21T22:24:35.366Z,93699.09
2022-11-21T22:27:05.013Z,93711.81
2022-11-21T22:29:34.523Z,93754.00
2022-11-21T22:32:04.039Z,93779.47
2022-11-21T22:34:34.967Z,93733.53
2022-11-21T22:37:04.503Z,93778.66
2022-11-21T22:39:34.130Z,93767.16
2022-11-21T22:42:03.597Z,93758.38
2022-11-21T22:44:33.303Z,93755.44
2022-11-21T22:47:03.057Z,93750.69
2022-11-21T22:49:32.564Z,93747.25
2022-11-21T22:52:03.399Z,93751.75
2022-11-21T22:54:32.884Z,93740.84
2022-11-21T22:57:02.311Z,93749.88
2022-11-21T22:59:31.823Z,93737.66
2022-11-21T23:02:01.400Z,93734.22
2022-11-21T23:04:31.293Z,93729.47
2022-11-21T23:07:02.378Z,93722.56
2022-11-21T23:09:32.312Z,93735.56
2022-11-21T23:12:02.359Z,93732.06
2022-11-21T23:14:31.890Z,93729.44
2022-11-21T23:17:01.350Z,93735.53
2022-11-21T23:19:31.018Z,93731.03
2022-11-21T23:22:02.084Z,93730.75
2022-11-21T23:24:31.527Z,93733.16
2022-11-21T23:27:01.073Z,93736.06
2022-11-21T23:29:31.036Z,93728.38
2022-11-21T23:32:00.811Z,93728.13
2022-11-21T23:34:30.208Z,93727.84
2022-11-21T23:36:59.691Z,93724.38
2022-11-21T23:39:30.932Z,93719.59
2022-11-21T23:42:00.737Z,93721.19
2022-11-21T23:44:30.215Z,93716.69
2022-11-21T23:46:59.724Z,93721.97
2022-11-21T23:49:29.370Z,93717.97
2022-11-21T23:51:59.150Z,93724.31
2022-11-21T23:54:29.988Z,93734.38
2022-11-21T23:56:59.435Z,93740.47
2022-11-21T23:59:28.946Z,93744.72
